sensor_id;sensor_type;location;lat;lon;timestamp;P1;durP1;ratioP1;P2;durP2;ratioP2
16593;SDS011;8410;52.532;13.336;2024-03-08T00:00:10;28.23;;;23.17;;
16593;SDS011;8410;52.532;13.336;2024-03-08T00:02:41;28.50;;;21.53;;
16593;SDS011;8410;52.532;13.336;2024-03-08T00:05:10;28.60;;;20.17;;
16593;SDS011;8410;52.532;13.336;2024-03-08T00:07:37;28.70;;;21.37;;
16593;SDS011;8410;52.532;13.336;2024-03-08T00:10:06;27.17;;;19.10;;
16593;SDS011;8410;52.532;13.336;2024-03-08T00:12:38;47.20;;;34.50;;
16593;SDS011;8410;52.532;13.336;2024-03-08T00:15:09;26.10;;;20.07;;
16593;SDS011;8410;52.532;13.336;2024-03-08T00:17:40;26.40;;;20.13;;
16593;SDS011;8410;52.532;13.336;2024-03-08T00:20:08;27.40;;;20.00;;
16593;SDS011;8410;52.532;13.336;2024-03-08T00:22:36;29.07;;;19.60;;
16593;SDS011;8410;52.532;13.336;2024-03-08T00:25:05;26.50;;;19.67;;
16593;SDS011;8410;52.532;13.336;2024-03-08T00:27:35;31.57;;;23.23;;
16593;SDS011;8410;52.532;13.336;2024-03-08T00:30:03;48.10;;;36.33;;
16593;SDS011;8410;52.532;13.336;2024-03-08T00:32:33;31.43;;;23.37;;
16593;SDS011;8410;52.532;13.336;2024-03-08T00:35:00;26.23;;;19.43;;
16593;SDS011;8410;52.532;13.336;2024-03-08T00:37:28;28.23;;;19.77;;
16593;SDS011;8410;52.532;13.336;2024-03-08T00:39:56;30.60;;;22.40;;
16593;SDS011;8410;52.532;13.336;2024-03-08T00:42:24;25.03;;;20.33;;
16593;SDS011;8410;52.532;13.336;2024-03-08T00:44:51;28.37;;;20.70;;
16593;SDS011;8410;52.532;13.336;2024-03-08T00:47:19;25.93;;;20.67;;
16593;SDS011;8410;52.532;13.336;2024-03-08T00:49:48;27.63;;;19.83;;
16593;SDS011;8410;52.532;13.336;2024-03-08T00:52:15;25.70;;;19.10;;
16593;SDS011;8410;52.532;13.336;2024-03-08T00:54:44;27.13;;;19.30;;
16593;SDS011;8410;52.532;13.336;2024-03-08T00:57:12;27.40;;;20.33;;
16593;SDS011;8410;52.532;13.336;2024-03-08T00:59:40;27.73;;;22.97;;
16593;SDS011;8410;52.532;13.336;2024-03-08T01:02:08;25.90;;;18.30;;
16593;SDS011;8410;52.532;13.336;2024-03-08T01:04:35;40.77;;;28.83;;
16593;SDS011;8410;52.532;13.336;2024-03-08T01:07:04;41.17;;;29.43;;
16593;SDS011;8410;52.532;13.336;2024-03-08T01:09:32;34.73;;;25.20;;
16593;SDS011;8410;52.532;13.336;2024-03-08T01:11:59;42.77;;;30.30;;
16593;SDS011;8410;52.532;13.336;2024-03-08T01:14:27;39.47;;;29.03;;
16593;SDS011;8410;52.532;13.336;2024-03-08T01:16:56;65.40;;;43.40;;
16593;SDS011;8410;52.532;13.336;2024-03-08T01:19:24;31.07;;;21.17;;
16593;SDS011;8410;52.532;13.336;2024-03-08T01:21:51;28.87;;;22.17;;
16593;SDS011;8410;52.532;13.336;2024-03-08T01:24:20;34.07;;;26.17;;
16593;SDS011;8410;52.532;13.336;2024-03-08T01:26:48;27.93;;;21.43;;
16593;SDS011;8410;52.532;13.336;2024-03-08T01:29:15;45.03;;;33.30;;
16593;SDS011;8410;52.532;13.336;2024-03-08T01:31:43;34.80;;;25.03;;
16593;SDS011;8410;52.532;13.336;2024-03-08T01:34:10;24.53;;;19.33;;
16593;SDS011;8410;52.532;13.336;2024-03-08T01:36:38;29.77;;;21.17;;
16593;SDS011;8410;52.532;13.336;2024-03-08T01:39:05;27.30;;;19.67;;
16593;SDS011;8410;52.532;13.336;2024-03-08T01:41:36;30.70;;;21.20;;
16593;SDS011;8410;52.532;13.336;2024-03-08T01:44:04;28.90;;;20.67;;
16593;SDS011;8410;52.532;13.336;2024-03-08T01:46:33;26.07;;;19.27;;
16593;SDS011;8410;52.532;13.336;2024-03-08T01:49:02;29.10;;;20.60;;
16593;SDS011;8410;52.532;13.336;2024-03-08T01:51:30;23.90;;;19.17;;
16593;SDS011;8410;52.532;13.336;2024-03-08T01:53:58;25.47;;;18.90;;
16593;SDS011;8410;52.532;13.336;2024-03-08T01:56:30;28.17;;;20.70;;
16593;SDS011;8410;52.532;13.336;2024-03-08T01:58:59;25.93;;;20.87;;
16593;SDS011;8410;52.532;13.336;2024-03-08T02:01:27;24.23;;;18.03;;
16593;SDS011;8410;52.532;13.336;2024-03-08T02:03:55;27.13;;;20.27;;
16593;SDS011;8410;52.532;13.336;2024-03-08T02:06:23;26.63;;;20.57;;
16593;SDS011;8410;52.532;13.336;2024-03-08T02:08:50;26.70;;;20.40;;
16593;SDS011;8410;52.532;13.336;2024-03-08T02:11:18;28.17;;;18.93;;
16593;SDS011;8410;52.532;13.336;2024-03-08T02:13:46;25.93;;;19.70;;
16593;SDS011;8410;52.532;13.336;2024-03-08T02:16:20;26.33;;;19.80;;
16593;SDS011;8410;52.532;13.336;2024-03-08T02:18:49;29.03;;;20.90;;
16593;SDS011;8410;52.532;13.336;2024-03-08T02:21:18;26.07;;;17.93;;
16593;SDS011;8410;52.532;13.336;2024-03-08T02:23:45;29.07;;;20.50;;
16593;SDS011;8410;52.532;13.336;2024-03-08T02:26:13;31.97;;;20.53;;
16593;SDS011;8410;52.532;13.336;2024-03-08T02:28:41;25.13;;;18.67;;
16593;SDS011;8410;52.532;13.336;2024-03-08T02:31:10;26.90;;;18.33;;
16593;SDS011;8410;52.532;13.336;2024-03-08T02:33:38;27.07;;;19.43;;
16593;SDS011;8410;52.532;13.336;2024-03-08T02:36:06;26.57;;;19.43;;
16593;SDS011;8410;52.532;13.336;2024-03-08T02:38:35;26.83;;;18.33;;
16593;SDS011;8410;52.532;13.336;2024-03-08T02:41:04;25.97;;;17.10;;
16593;SDS011;8410;52.532;13.336;2024-03-08T02:43:32;30.63;;;20.83;;
16593;SDS011;8410;52.532;13.336;2024-03-08T02:46:00;27.57;;;19.80;;
16593;SDS011;8410;52.532;13.336;2024-03-08T02:48:27;31.23;;;21.50;;
16593;SDS011;8410;52.532;13.336;2024-03-08T02:50:55;26.50;;;19.57;;
16593;SDS011;8410;52.532;13.336;2024-03-08T02:53:23;25.67;;;18.30;;
16593;SDS011;8410;52.532;13.336;2024-03-08T02:55:52;27.47;;;20.67;;
16593;SDS011;8410;52.532;13.336;2024-03-08T02:58:21;29.97;;;21.47;;
16593;SDS011;8410;52.532;13.336;2024-03-08T03:00:49;29.67;;;21.83;;
16593;SDS011;8410;52.532;13.336;2024-03-08T03:03:17;30.23;;;21.87;;
16593;SDS011;8410;52.532;13.336;2024-03-08T03:05:44;30.00;;;21.23;;
16593;SDS011;8410;52.532;13.336;2024-03-08T03:08:14;27.63;;;20.27;;
16593;SDS011;8410;52.532;13.336;2024-03-08T03:10:43;33.80;;;21.80;;
16593;SDS011;8410;52.532;13.336;2024-03-08T03:13:12;30.17;;;18.80;;
16593;SDS011;8410;52.532;13.336;2024-03-08T03:15:40;29.50;;;21.23;;
16593;SDS011;8410;52.532;13.336;2024-03-08T03:18:08;34.03;;;23.67;;
16593;SDS011;8410;52.532;13.336;2024-03-08T03:20:36;31.80;;;20.60;;
16593;SDS011;8410;52.532;13.336;2024-03-08T03:23:07;31.03;;;21.13;;
16593;SDS011;8410;52.532;13.336;2024-03-08T03:25:35;27.37;;;20.33;;
16593;SDS011;8410;52.532;13.336;2024-03-08T03:28:05;28.67;;;20.63;;
16593;SDS011;8410;52.532;13.336;2024-03-08T03:30:35;29.73;;;21.23;;
16593;SDS011;8410;52.532;13.336;2024-03-08T03:33:03;29.23;;;19.73;;
16593;SDS011;8410;52.532;13.336;2024-03-08T03:35:34;29.77;;;21.53;;
16593;SDS011;8410;52.532;13.336;2024-03-08T03:38:03;31.63;;;22.63;;
16593;SDS011;8410;52.532;13.336;2024-03-08T03:40:34;26.93;;;19.00;;
16593;SDS011;8410;52.532;13.336;2024-03-08T03:43:03;27.87;;;20.53;;
16593;SDS011;8410;52.532;13.336;2024-03-08T03:45:31;30.27;;;20.50;;
16593;SDS011;8410;52.532;13.336;2024-03-08T03:48:03;33.57;;;22.20;;
16593;SDS011;8410;52.532;13.336;2024-03-08T03:50:33;26.70;;;18.63;;
16593;SDS011;8410;52.532;13.336;2024-03-08T03:53:02;32.87;;;20.07;;
16593;SDS011;8410;52.532;13.336;2024-03-08T03:55:31;30.80;;;19.13;;
16593;SDS011;8410;52.532;13.336;2024-03-08T03:57:59;29.83;;;20.60;;
16593;SDS011;8410;52.532;13.336;2024-03-08T04:00:27;27.43;;;20.27;;
16593;SDS011;8410;52.532;13.336;2024-03-08T04:02:55;27.80;;;20.30;;
16593;SDS011;8410;52.532;13.336;2024-03-08T04:05:27;28.63;;;19.23;;
16593;SDS011;8410;52.532;13.336;2024-03-08T04:07:55;31.13;;;20.40;;
16593;SDS011;8410;52.532;13.336;2024-03-08T04:10:23;30.73;;;22.00;;
16593;SDS011;8410;52.532;13.336;2024-03-08T04:12:50;26.13;;;20.70;;
16593;SDS011;8410;52.532;13.336;2024-03-08T04:15:18;30.10;;;20.80;;
16593;SDS011;8410;52.532;13.336;2024-03-08T04:17:47;30.30;;;22.43;;
16593;SDS011;8410;52.532;13.336;2024-03-08T04:20:14;32.27;;;20.50;;
16593;SDS011;8410;52.532;13.336;2024-03-08T04:22:45;33.47;;;21.37;;
16593;SDS011;8410;52.532;13.336;2024-03-08T04:25:14;31.23;;;21.40;;
16593;SDS011;8410;52.532;13.336;2024-03-08T04:27:42;27.63;;;19.07;;
16593;SDS011;8410;52.532;13.336;2024-03-08T04:30:11;30.03;;;20.40;;
16593;SDS011;8410;52.532;13.336;2024-03-08T04:32:39;30.13;;;20.93;;
16593;SDS011;8410;52.532;13.336;2024-03-08T04:35:08;27.90;;;21.03;;
16593;SDS011;8410;52.532;13.336;2024-03-08T04:37:35;29.07;;;19.97;;
16593;SDS011;8410;52.532;13.336;2024-03-08T04:40:05;30.67;;;22.03;;
16593;SDS011;8410;52.532;13.336;2024-03-08T04:42:33;34.57;;;21.67;;
16593;SDS011;8410;52.532;13.336;2024-03-08T04:45:02;29.20;;;21.13;;
16593;SDS011;8410;52.532;13.336;2024-03-08T04:47:30;30.47;;;19.63;;
16593;SDS011;8410;52.532;13.336;2024-03-08T04:49:58;29.47;;;20.00;;
16593;SDS011;8410;52.532;13.336;2024-03-08T04:52:25;29.17;;;19.17;;
16593;SDS011;8410;52.532;13.336;2024-03-08T04:54:54;31.40;;;21.93;;
16593;SDS011;8410;52.532;13.336;2024-03-08T04:57:23;32.27;;;22.90;;
16593;SDS011;8410;52.532;13.336;2024-03-08T04:59:52;30.50;;;21.67;;
16593;SDS011;8410;52.532;13.336;2024-03-08T05:02:19;34.30;;;22.23;;
16593;SDS011;8410;52.532;13.336;2024-03-08T05:04:48;30.53;;;19.47;;
16593;SDS011;8410;52.532;13.336;2024-03-08T05:07:17;29.97;;;22.23;;
16593;SDS011;8410;52.532;13.336;2024-03-08T05:09:45;32.47;;;21.40;;
16593;SDS011;8410;52.532;13.336;2024-03-08T05:12:17;34.03;;;23.37;;
16593;SDS011;8410;52.532;13.336;2024-03-08T05:14:46;30.43;;;20.97;;
16593;SDS011;8410;52.532;13.336;2024-03-08T05:17:15;34.63;;;22.67;;
16593;SDS011;8410;52.532;13.336;2024-03-08T05:19:43;30.17;;;20.77;;
16593;SDS011;8410;52.532;13.336;2024-03-08T05:22:11;34.57;;;21.20;;
16593;SDS011;8410;52.532;13.336;2024-03-08T05:24:39;32.60;;;22.97;;
16593;SDS011;8410;52.532;13.336;2024-03-08T05:27:07;34.23;;;23.80;;
16593;SDS011;8410;52.532;13.336;2024-03-08T05:29:34;33.70;;;22.73;;
16593;SDS011;8410;52.532;13.336;2024-03-08T05:32:03;32.57;;;22.83;;
16593;SDS011;8410;52.532;13.336;2024-03-08T05:34:31;33.67;;;23.90;;
16593;SDS011;8410;52.532;13.336;2024-03-08T05:36:58;34.33;;;24.13;;
16593;SDS011;8410;52.532;13.336;2024-03-08T05:39:26;33.70;;;21.37;;
16593;SDS011;8410;52.532;13.336;2024-03-08T05:41:54;33.80;;;21.77;;
16593;SDS011;8410;52.532;13.336;2024-03-08T05:44:22;33.03;;;24.80;;
16593;SDS011;8410;52.532;13.336;2024-03-08T05:46:50;34.73;;;23.43;;
16593;SDS011;8410;52.532;13.336;2024-03-08T05:49:19;34.50;;;22.53;;
16593;SDS011;8410;52.532;13.336;2024-03-08T05:51:47;33.47;;;21.37;;
16593;SDS011;8410;52.532;13.336;2024-03-08T05:54:15;33.20;;;22.10;;
16593;SDS011;8410;52.532;13.336;2024-03-08T05:56:46;30.87;;;21.83;;
16593;SDS011;8410;52.532;13.336;2024-03-08T05:59:14;29.83;;;20.63;;
16593;SDS011;8410;52.532;13.336;2024-03-08T06:01:42;33.77;;;23.10;;
16593;SDS011;8410;52.532;13.336;2024-03-08T06:04:09;31.07;;;22.50;;
16593;SDS011;8410;52.532;13.336;2024-03-08T06:06:40;33.20;;;24.87;;
16593;SDS011;8410;52.532;13.336;2024-03-08T06:09:08;36.60;;;23.30;;
16593;SDS011;8410;52.532;13.336;2024-03-08T06:11:41;32.90;;;21.93;;
16593;SDS011;8410;52.532;13.336;2024-03-08T06:14:09;34.50;;;25.13;;
16593;SDS011;8410;52.532;13.336;2024-03-08T06:16:37;36.43;;;23.87;;
16593;SDS011;8410;52.532;13.336;2024-03-08T06:19:05;38.77;;;24.60;;
16593;SDS011;8410;52.532;13.336;2024-03-08T06:21:32;33.40;;;22.07;;
16593;SDS011;8410;52.532;13.336;2024-03-08T06:24:01;30.53;;;20.03;;
16593;SDS011;8410;52.532;13.336;2024-03-08T06:26:29;33.47;;;21.50;;
16593;SDS011;8410;52.532;13.336;2024-03-08T06:28:58;36.23;;;23.50;;
16593;SDS011;8410;52.532;13.336;2024-03-08T06:31:26;32.77;;;23.13;;
16593;SDS011;8410;52.532;13.336;2024-03-08T06:33:54;31.13;;;21.40;;
16593;SDS011;8410;52.532;13.336;2024-03-08T06:36:22;33.73;;;23.20;;
16593;SDS011;8410;52.532;13.336;2024-03-08T06:38:51;32.70;;;22.03;;
16593;SDS011;8410;52.532;13.336;2024-03-08T06:41:20;32.67;;;24.00;;
16593;SDS011;8410;52.532;13.336;2024-03-08T06:43:48;34.57;;;25.77;;
16593;SDS011;8410;52.532;13.336;2024-03-08T06:46:18;34.40;;;23.23;;
16593;SDS011;8410;52.532;13.336;2024-03-08T06:48:47;34.90;;;23.47;;
16593;SDS011;8410;52.532;13.336;2024-03-08T06:51:16;31.10;;;21.00;;
16593;SDS011;8410;52.532;13.336;2024-03-08T06:53:44;33.17;;;24.67;;
16593;SDS011;8410;52.532;13.336;2024-03-08T06:56:11;29.43;;;21.87;;
16593;SDS011;8410;52.532;13.336;2024-03-08T06:58:40;32.77;;;22.60;;
16593;SDS011;8410;52.532;13.336;2024-03-08T07:01:08;32.73;;;23.93;;
16593;SDS011;8410;52.532;13.336;2024-03-08T07:03:41;33.73;;;23.57;;
16593;SDS011;8410;52.532;13.336;2024-03-08T07:06:10;33.60;;;23.67;;
16593;SDS011;8410;52.532;13.336;2024-03-08T07:08:38;38.67;;;25.17;;
16593;SDS011;8410;52.532;13.336;2024-03-08T07:11:06;32.60;;;22.00;;
16593;SDS011;8410;52.532;13.336;2024-03-08T07:13:34;32.57;;;24.77;;
16593;SDS011;8410;52.532;13.336;2024-03-08T07:16:02;31.57;;;22.57;;
16593;SDS011;8410;52.532;13.336;2024-03-08T07:18:30;33.80;;;24.30;;
16593;SDS011;8410;52.532;13.336;2024-03-08T07:20:58;31.13;;;20.67;;
16593;SDS011;8410;52.532;13.336;2024-03-08T07:23:26;31.60;;;23.70;;
16593;SDS011;8410;52.532;13.336;2024-03-08T07:26:11;34.90;;;23.97;;
16593;SDS011;8410;52.532;13.336;2024-03-08T07:28:42;27.77;;;21.43;;
16593;SDS011;8410;52.532;13.336;2024-03-08T07:31:11;31.87;;;22.57;;
16593;SDS011;8410;52.532;13.336;2024-03-08T07:33:47;30.47;;;22.83;;
16593;SDS011;8410;52.532;13.336;2024-03-08T07:36:17;32.03;;;23.57;;
16593;SDS011;8410;52.532;13.336;2024-03-08T07:38:44;31.80;;;23.27;;
16593;SDS011;8410;52.532;13.336;2024-03-08T07:41:13;27.70;;;19.93;;
16593;SDS011;8410;52.532;13.336;2024-03-08T07:43:42;27.97;;;20.43;;
16593;SDS011;8410;52.532;13.336;2024-03-08T07:46:11;29.00;;;22.03;;
16593;SDS011;8410;52.532;13.336;2024-03-08T07:48:39;27.53;;;19.87;;
16593;SDS011;8410;52.532;13.336;2024-03-08T07:51:07;30.77;;;22.00;;
16593;SDS011;8410;52.532;13.336;2024-03-08T07:53:36;30.50;;;21.47;;
16593;SDS011;8410;52.532;13.336;2024-03-08T07:56:04;28.13;;;20.50;;
16593;SDS011;8410;52.532;13.336;2024-03-08T07:58:32;30.33;;;22.37;;
16593;SDS011;8410;52.532;13.336;2024-03-08T08:01:01;26.63;;;18.73;;
16593;SDS011;8410;52.532;13.336;2024-03-08T08:03:30;32.73;;;22.50;;
16593;SDS011;8410;52.532;13.336;2024-03-08T08:05:57;35.87;;;28.43;;
16593;SDS011;8410;52.532;13.336;2024-03-08T08:08:25;44.07;;;35.67;;
16593;SDS011;8410;52.532;13.336;2024-03-08T08:10:53;49.27;;;36.03;;
16593;SDS011;8410;52.532;13.336;2024-03-08T08:13:21;53.43;;;37.97;;
16593;SDS011;8410;52.532;13.336;2024-03-08T08:15:49;57.03;;;45.07;;
16593;SDS011;8410;52.532;13.336;2024-03-08T08:18:17;58.77;;;45.43;;
16593;SDS011;8410;52.532;13.336;2024-03-08T08:20:49;63.87;;;49.10;;
16593;SDS011;8410;52.532;13.336;2024-03-08T08:23:16;68.63;;;48.40;;
16593;SDS011;8410;52.532;13.336;2024-03-08T08:25:45;65.23;;;51.47;;
16593;SDS011;8410;52.532;13.336;2024-03-08T08:28:14;56.60;;;41.07;;
16593;SDS011;8410;52.532;13.336;2024-03-08T08:30:43;64.03;;;50.53;;
16593;SDS011;8410;52.532;13.336;2024-03-08T08:33:11;57.87;;;42.17;;
16593;SDS011;8410;52.532;13.336;2024-03-08T08:35:39;45.90;;;34.23;;
16593;SDS011;8410;52.532;13.336;2024-03-08T08:38:08;45.17;;;33.50;;
16593;SDS011;8410;52.532;13.336;2024-03-08T08:40:36;49.90;;;34.60;;
16593;SDS011;8410;52.532;13.336;2024-03-08T08:43:05;41.27;;;31.30;;
16593;SDS011;8410;52.532;13.336;2024-03-08T08:45:33;40.07;;;28.07;;
16593;SDS011;8410;52.532;13.336;2024-03-08T08:48:00;42.80;;;30.83;;
16593;SDS011;8410;52.532;13.336;2024-03-08T08:50:28;42.00;;;29.00;;
16593;SDS011;8410;52.532;13.336;2024-03-08T08:52:57;34.03;;;24.47;;
16593;SDS011;8410;52.532;13.336;2024-03-08T08:55:26;32.00;;;24.13;;
16593;SDS011;8410;52.532;13.336;2024-03-08T08:57:54;34.70;;;26.13;;
16593;SDS011;8410;52.532;13.336;2024-03-08T09:00:22;29.23;;;22.23;;
16593;SDS011;8410;52.532;13.336;2024-03-08T09:02:54;25.67;;;20.10;;
16593;SDS011;8410;52.532;13.336;2024-03-08T09:05:24;29.07;;;20.73;;
16593;SDS011;8410;52.532;13.336;2024-03-08T09:07:52;27.57;;;20.07;;
16593;SDS011;8410;52.532;13.336;2024-03-08T09:10:20;24.30;;;19.17;;
16593;SDS011;8410;52.532;13.336;2024-03-08T09:12:49;25.37;;;20.33;;
16593;SDS011;8410;52.532;13.336;2024-03-08T09:15:16;30.60;;;22.20;;
16593;SDS011;8410;52.532;13.336;2024-03-08T09:17:47;27.43;;;21.10;;
16593;SDS011;8410;52.532;13.336;2024-03-08T09:20:15;27.00;;;18.73;;
16593;SDS011;8410;52.532;13.336;2024-03-08T09:22:44;27.03;;;19.07;;
16593;SDS011;8410;52.532;13.336;2024-03-08T09:25:12;26.83;;;20.23;;
16593;SDS011;8410;52.532;13.336;2024-03-08T09:27:41;27.70;;;18.83;;
16593;SDS011;8410;52.532;13.336;2024-03-08T09:30:14;26.37;;;20.57;;
16593;SDS011;8410;52.532;13.336;2024-03-08T09:32:42;26.60;;;18.37;;
16593;SDS011;8410;52.532;13.336;2024-03-08T09:35:10;24.17;;;18.47;;
16593;SDS011;8410;52.532;13.336;2024-03-08T09:37:39;26.53;;;21.40;;
16593;SDS011;8410;52.532;13.336;2024-03-08T09:40:09;23.73;;;20.40;;
16593;SDS011;8410;52.532;13.336;2024-03-08T09:42:41;28.63;;;19.90;;
16593;SDS011;8410;52.532;13.336;2024-03-08T09:45:09;23.53;;;18.70;;
16593;SDS011;8410;52.532;13.336;2024-03-08T09:47:40;25.77;;;18.90;;
16593;SDS011;8410;52.532;13.336;2024-03-08T09:50:08;28.13;;;19.43;;
16593;SDS011;8410;52.532;13.336;2024-03-08T09:52:38;27.27;;;19.70;;
16593;SDS011;8410;52.532;13.336;2024-03-08T09:55:07;25.63;;;19.17;;
16593;SDS011;8410;52.532;13.336;2024-03-08T09:57:35;24.70;;;19.17;;
16593;SDS011;8410;52.532;13.336;2024-03-08T10:00:04;25.70;;;19.00;;
16593;SDS011;8410;52.532;13.336;2024-03-08T10:02:46;22.03;;;17.67;;
16593;SDS011;8410;52.532;13.336;2024-03-08T10:05:14;23.60;;;18.83;;
16593;SDS011;8410;52.532;13.336;2024-03-08T10:07:42;21.40;;;15.53;;
16593;SDS011;8410;52.532;13.336;2024-03-08T10:10:09;22.00;;;17.30;;
16593;SDS011;8410;52.532;13.336;2024-03-08T10:12:38;23.43;;;19.10;;
16593;SDS011;8410;52.532;13.336;2024-03-08T10:15:06;23.43;;;18.43;;
16593;SDS011;8410;52.532;13.336;2024-03-08T10:17:35;20.97;;;16.70;;
16593;SDS011;8410;52.532;13.336;2024-03-08T10:20:05;20.73;;;16.67;;
16593;SDS011;8410;52.532;13.336;2024-03-08T10:22:41;22.57;;;16.27;;
16593;SDS011;8410;52.532;13.336;2024-03-08T10:25:23;21.77;;;16.93;;
16593;SDS011;8410;52.532;13.336;2024-03-08T10:27:51;24.73;;;18.63;;
16593;SDS011;8410;52.532;13.336;2024-03-08T10:30:19;22.40;;;16.90;;
16593;SDS011;8410;52.532;13.336;2024-03-08T10:32:47;21.70;;;16.17;;
16593;SDS011;8410;52.532;13.336;2024-03-08T10:35:17;22.63;;;17.47;;
16593;SDS011;8410;52.532;13.336;2024-03-08T10:37:48;22.70;;;17.13;;
16593;SDS011;8410;52.532;13.336;2024-03-08T10:40:25;20.53;;;16.43;;
16593;SDS011;8410;52.532;13.336;2024-03-08T10:42:54;25.13;;;16.53;;
16593;SDS011;8410;52.532;13.336;2024-03-08T10:45:26;21.43;;;16.57;;
16593;SDS011;8410;52.532;13.336;2024-03-08T10:48:16;21.27;;;16.30;;
16593;SDS011;8410;52.532;13.336;2024-03-08T10:51:03;20.87;;;16.90;;
16593;SDS011;8410;52.532;13.336;2024-03-08T10:53:31;20.73;;;15.63;;
16593;SDS011;8410;52.532;13.336;2024-03-08T10:56:03;22.20;;;17.97;;
16593;SDS011;8410;52.532;13.336;2024-03-08T10:58:33;20.17;;;15.60;;
16593;SDS011;8410;52.532;13.336;2024-03-08T11:01:02;20.50;;;16.03;;
16593;SDS011;8410;52.532;13.336;2024-03-08T11:03:45;25.53;;;16.97;;
16593;SDS011;8410;52.532;13.336;2024-03-08T11:06:16;18.83;;;14.63;;
16593;SDS011;8410;52.532;13.336;2024-03-08T11:08:49;18.90;;;14.10;;
16593;SDS011;8410;52.532;13.336;2024-03-08T11:11:24;22.17;;;15.83;;
16593;SDS011;8410;52.532;13.336;2024-03-08T11:14:00;19.97;;;14.10;;
16593;SDS011;8410;52.532;13.336;2024-03-08T11:16:37;19.60;;;15.13;;
16593;SDS011;8410;52.532;13.336;2024-03-08T11:19:22;19.17;;;15.53;;
16593;SDS011;8410;52.532;13.336;2024-03-08T11:21:59;16.17;;;13.10;;
16593;SDS011;8410;52.532;13.336;2024-03-08T11:24:36;19.13;;;13.43;;
16593;SDS011;8410;52.532;13.336;2024-03-08T11:27:06;18.20;;;13.60;;
16593;SDS011;8410;52.532;13.336;2024-03-08T11:29:36;17.47;;;13.57;;
16593;SDS011;8410;52.532;13.336;2024-03-08T11:32:09;17.37;;;14.07;;
16593;SDS011;8410;52.532;13.336;2024-03-08T11:34:39;16.30;;;13.40;;
16593;SDS011;8410;52.532;13.336;2024-03-08T11:37:14;16.70;;;13.50;;
16593;SDS011;8410;52.532;13.336;2024-03-08T11:39:46;18.70;;;13.17;;
16593;SDS011;8410;52.532;13.336;2024-03-08T11:42:14;18.17;;;13.73;;
16593;SDS011;8410;52.532;13.336;2024-03-08T11:44:43;17.87;;;14.40;;
16593;SDS011;8410;52.532;13.336;2024-03-08T11:47:11;20.97;;;14.70;;
16593;SDS011;8410;52.532;13.336;2024-03-08T11:49:39;17.97;;;13.63;;
16593;SDS011;8410;52.532;13.336;2024-03-08T11:52:10;18.47;;;15.60;;
16593;SDS011;8410;52.532;13.336;2024-03-08T11:54:41;17.13;;;14.30;;
16593;SDS011;8410;52.532;13.336;2024-03-08T11:57:09;17.00;;;13.60;;
16593;SDS011;8410;52.532;13.336;2024-03-08T11:59:37;18.03;;;14.90;;
16593;SDS011;8410;52.532;13.336;2024-03-08T12:02:05;19.83;;;15.50;;
16593;SDS011;8410;52.532;13.336;2024-03-08T12:04:36;19.00;;;14.60;;
16593;SDS011;8410;52.532;13.336;2024-03-08T12:07:04;17.70;;;14.77;;
16593;SDS011;8410;52.532;13.336;2024-03-08T12:09:35;20.87;;;14.90;;
16593;SDS011;8410;52.532;13.336;2024-03-08T12:12:05;19.90;;;15.63;;
16593;SDS011;8410;52.532;13.336;2024-03-08T12:14:34;18.50;;;15.33;;
16593;SDS011;8410;52.532;13.336;2024-03-08T12:17:03;20.10;;;15.07;;
16593;SDS011;8410;52.532;13.336;2024-03-08T12:19:31;18.27;;;15.73;;
16593;SDS011;8410;52.532;13.336;2024-03-08T12:22:06;19.03;;;14.77;;
16593;SDS011;8410;52.532;13.336;2024-03-08T12:24:34;18.97;;;15.67;;
16593;SDS011;8410;52.532;13.336;2024-03-08T12:27:18;18.03;;;14.10;;
16593;SDS011;8410;52.532;13.336;2024-03-08T12:29:46;21.00;;;16.67;;
16593;SDS011;8410;52.532;13.336;2024-03-08T12:32:14;19.47;;;14.93;;
16593;SDS011;8410;52.532;13.336;2024-03-08T12:34:42;19.33;;;15.07;;
16593;SDS011;8410;52.532;13.336;2024-03-08T12:37:12;20.13;;;16.27;;
16593;SDS011;8410;52.532;13.336;2024-03-08T12:39:40;18.90;;;13.87;;
16593;SDS011;8410;52.532;13.336;2024-03-08T12:42:12;19.97;;;15.70;;
16593;SDS011;8410;52.532;13.336;2024-03-08T12:44:41;18.50;;;14.30;;
16593;SDS011;8410;52.532;13.336;2024-03-08T12:47:09;17.40;;;13.27;;
16593;SDS011;8410;52.532;13.336;2024-03-08T12:49:37;19.20;;;13.97;;
16593;SDS011;8410;52.532;13.336;2024-03-08T12:52:09;20.17;;;14.97;;
16593;SDS011;8410;52.532;13.336;2024-03-08T12:54:38;16.70;;;13.53;;
16593;SDS011;8410;52.532;13.336;2024-03-08T12:57:05;17.87;;;15.67;;
16593;SDS011;8410;52.532;13.336;2024-03-08T12:59:34;18.07;;;12.03;;
16593;SDS011;8410;52.532;13.336;2024-03-08T13:02:02;20.07;;;13.93;;
16593;SDS011;8410;52.532;13.336;2024-03-08T13:04:32;18.03;;;14.93;;
16593;SDS011;8410;52.532;13.336;2024-03-08T13:06:59;19.53;;;14.63;;
16593;SDS011;8410;52.532;13.336;2024-03-08T13:09:27;16.70;;;13.60;;
16593;SDS011;8410;52.532;13.336;2024-03-08T13:11:55;15.70;;;13.27;;
16593;SDS011;8410;52.532;13.336;2024-03-08T13:14:25;17.83;;;13.80;;
16593;SDS011;8410;52.532;13.336;2024-03-08T13:16:52;19.27;;;13.87;;
16593;SDS011;8410;52.532;13.336;2024-03-08T13:19:22;18.30;;;14.00;;
16593;SDS011;8410;52.532;13.336;2024-03-08T13:21:51;16.67;;;13.40;;
16593;SDS011;8410;52.532;13.336;2024-03-08T13:24:19;18.03;;;14.17;;
16593;SDS011;8410;52.532;13.336;2024-03-08T13:26:48;18.27;;;14.30;;
16593;SDS011;8410;52.532;13.336;2024-03-08T13:29:16;16.30;;;13.37;;
16593;SDS011;8410;52.532;13.336;2024-03-08T13:31:44;18.93;;;14.03;;
16593;SDS011;8410;52.532;13.336;2024-03-08T13:34:13;17.90;;;15.30;;
16593;SDS011;8410;52.532;13.336;2024-03-08T13:36:43;17.17;;;13.67;;
16593;SDS011;8410;52.532;13.336;2024-03-08T13:39:12;17.03;;;12.97;;
16593;SDS011;8410;52.532;13.336;2024-03-08T13:41:42;17.43;;;13.00;;
16593;SDS011;8410;52.532;13.336;2024-03-08T13:44:10;17.63;;;15.73;;
16593;SDS011;8410;52.532;13.336;2024-03-08T13:46:38;16.33;;;12.67;;
16593;SDS011;8410;52.532;13.336;2024-03-08T13:49:06;15.83;;;12.50;;
16593;SDS011;8410;52.532;13.336;2024-03-08T13:51:35;17.83;;;13.97;;
16593;SDS011;8410;52.532;13.336;2024-03-08T13:54:04;14.53;;;11.90;;
16593;SDS011;8410;52.532;13.336;2024-03-08T13:56:33;19.40;;;15.27;;
16593;SDS011;8410;52.532;13.336;2024-03-08T13:59:01;15.73;;;13.43;;
16593;SDS011;8410;52.532;13.336;2024-03-08T14:01:29;16.97;;;14.80;;
16593;SDS011;8410;52.532;13.336;2024-03-08T14:03:57;17.67;;;14.30;;
16593;SDS011;8410;52.532;13.336;2024-03-08T14:06:25;15.60;;;12.40;;
16593;SDS011;8410;52.532;13.336;2024-03-08T14:08:53;16.87;;;14.30;;
16593;SDS011;8410;52.532;13.336;2024-03-08T14:11:24;15.37;;;12.50;;
16593;SDS011;8410;52.532;13.336;2024-03-08T14:13:52;15.47;;;12.40;;
16593;SDS011;8410;52.532;13.336;2024-03-08T14:16:20;15.23;;;12.27;;
16593;SDS011;8410;52.532;13.336;2024-03-08T14:18:48;15.73;;;13.87;;
16593;SDS011;8410;52.532;13.336;2024-03-08T14:21:15;13.27;;;11.37;;
16593;SDS011;8410;52.532;13.336;2024-03-08T14:23:43;16.60;;;13.63;;
16593;SDS011;8410;52.532;13.336;2024-03-08T14:26:10;14.93;;;12.60;;
16593;SDS011;8410;52.532;13.336;2024-03-08T14:28:40;16.50;;;12.57;;
16593;SDS011;8410;52.532;13.336;2024-03-08T14:31:07;17.80;;;12.60;;